createdAt,value
2018-11-25T00:01:29.517Z,47.32
2018-11-25T00:03:58.519Z,47.21
2018-11-25T00:06:26.695Z,47.49
2018-11-25T00:08:54.837Z,47.69
2018-11-25T00:11:24.475Z,47.88
2018-11-25T00:13:52.823Z,47.85
2018-11-25T00:16:21.510Z,47.82
2018-11-25T00:18:50.066Z,47.96
2018-11-25T00:21:18.320Z,47.65
2018-11-25T00:23:46.761Z,47.96
2018-11-25T00:26:15.763Z,47.67
2018-11-25T00:28:43.920Z,47.75
2018-11-25T00:31:12.199Z,48.02
2018-11-25T00:33:40.425Z,47.80
2018-11-25T00:36:08.931Z,47.89
2018-11-25T00:38:37.363Z,48.09
2018-11-25T00:41:06.168Z,47.78
2018-11-25T00:43:34.463Z,48.17
2018-11-25T00:46:03.298Z,48.28
2018-11-25T00:48:31.712Z,48.17
2018-11-25T00:51:00.196Z,48.32
2018-11-25T00:53:28.621Z,48.19
2018-11-25T00:55:57.037Z,48.06
2018-11-25T00:58:25.480Z,48.09
2018-11-25T01:00:53.984Z,47.86
2018-11-25T01:03:22.044Z,48.20
2018-11-25T01:05:50.132Z,48.05
2018-11-25T01:08:18.809Z,47.98
2018-11-25T01:10:46.887Z,48.26
2018-11-25T01:13:14.950Z,48.26
2018-11-25T01:15:43.053Z,48.26
2018-11-25T01:18:11.108Z,48.22
2018-11-25T01:20:39.312Z,48.02
2018-11-25T01:23:07.398Z,48.46
2018-11-25T01:25:35.699Z,48.30
2018-11-25T01:28:04.055Z,47.92
2018-11-25T01:30:32.972Z,48.36
2018-11-25T01:33:01.123Z,48.26
2018-11-25T01:35:29.632Z,48.30
2018-11-25T01:37:57.688Z,48.52
2018-11-25T01:40:25.743Z,48.50
2018-11-25T01:42:53.831Z,48.49
2018-11-25T01:45:22.378Z,48.39
2018-11-25T01:49:16.208Z,48.62
2018-11-25T01:52:07.392Z,48.56
2018-11-25T01:54:36.331Z,48.26
2018-11-25T01:57:04.868Z,48.39
2018-11-25T01:59:33.291Z,48.69
2018-11-25T02:02:01.600Z,48.69
2018-11-25T02:04:30.285Z,48.57
2018-11-25T02:06:58.635Z,48.14
2018-11-25T02:09:27.032Z,48.73
2018-11-25T02:11:55.443Z,48.53
2018-11-25T02:14:24.266Z,48.45
2018-11-25T02:16:52.737Z,48.34
2018-11-25T02:19:21.018Z,48.38
2018-11-25T02:21:49.719Z,48.42
2018-11-25T02:24:17.910Z,48.66
2018-11-25T02:26:46.345Z,48.73
2018-11-25T02:29:14.696Z,48.68
2018-11-25T02:31:43.093Z,48.58
2018-11-25T02:34:11.787Z,48.38
2018-11-25T02:36:40.033Z,48.54
2018-11-25T02:39:09.455Z,48.78
2018-11-25T02:41:38.460Z,48.42
2018-11-25T02:44:06.736Z,48.47
2018-11-25T02:46:35.184Z,48.63
2018-11-25T02:49:03.661Z,48.25
2018-11-25T02:51:32.011Z,48.49
2018-11-25T02:54:00.380Z,48.47
2018-11-25T02:56:29.147Z,48.43
2018-11-25T02:58:57.506Z,48.56
2018-11-25T03:01:26.186Z,48.53
2018-11-25T03:03:54.495Z,48.16
2018-11-25T03:06:23.835Z,48.74
2018-11-25T03:08:51.163Z,48.45
2018-11-25T03:11:20.019Z,48.21
2018-11-25T03:13:48.393Z,48.47
2018-11-25T03:16:16.595Z,48.48
2018-11-25T03:18:44.943Z,48.40
2018-11-25T03:21:13.183Z,48.34
2018-11-25T03:25:27.181Z,48.29
2018-11-25T03:27:55.783Z,48.44
2018-11-25T03:30:24.362Z,48.36
2018-11-25T03:32:53.178Z,48.52
2018-11-25T03:35:22.855Z,48.42
2018-11-25T03:38:12.671Z,48.35
2018-11-25T03:40:41.075Z,48.38
2018-11-25T03:43:09.918Z,48.41
2018-11-25T03:45:38.296Z,48.35
2018-11-25T03:48:06.729Z,48.18
2018-11-25T03:50:35.173Z,48.29
2018-11-25T03:53:04.437Z,48.14
2018-11-25T03:55:32.824Z,48.18
2018-11-25T03:58:01.663Z,48.17
2018-11-25T04:00:30.101Z,48.20
2018-11-25T04:02:58.516Z,48.24
2018-11-25T04:05:26.994Z,48.63
2018-11-25T04:07:55.371Z,48.40
2018-11-25T04:10:23.806Z,48.16
2018-11-25T04:12:52.436Z,48.29
2018-11-25T04:15:22.670Z,48.48
2018-11-25T04:18:44.183Z,48.20
2018-11-25T04:21:15.205Z,48.28
2018-11-25T04:23:44.132Z,48.21
2018-11-25T04:26:12.402Z,48.23
2018-11-25T04:30:38.325Z,48.35
2018-11-25T04:33:06.818Z,48.38
2018-11-25T04:35:35.308Z,48.44
2018-11-25T04:38:03.716Z,48.49
2018-11-25T04:40:32.165Z,48.60
2018-11-25T04:43:00.646Z,48.29
2018-11-25T04:45:29.073Z,48.47
2018-11-25T04:47:58.078Z,48.25
2018-11-25T04:50:26.527Z,48.22
2018-11-25T04:52:55.009Z,48.28
2018-11-25T04:55:23.384Z,48.24
2018-11-25T04:57:52.723Z,48.49
2018-11-25T05:00:21.322Z,48.38
2018-11-25T05:02:50.088Z,48.25
2018-11-25T05:05:18.706Z,48.43
2018-11-25T05:07:47.405Z,48.44
2018-11-25T05:10:16.434Z,48.14
2018-11-25T05:12:44.860Z,48.31
2018-11-25T05:15:17.734Z,48.35
2018-11-25T05:17:46.269Z,48.13
2018-11-25T05:20:15.028Z,48.30
2018-11-25T05:22:43.325Z,48.09
2018-11-25T05:25:16.444Z,48.38
2018-11-25T05:27:44.913Z,48.33
2018-11-25T05:30:13.830Z,48.46
2018-11-25T05:32:42.256Z,48.35
2018-11-25T05:35:11.392Z,48.23
2018-11-25T05:37:40.232Z,48.24
2018-11-25T05:40:16.405Z,48.13
2018-11-25T05:42:44.807Z,48.35
2018-11-25T05:45:14.468Z,48.26
2018-11-25T05:47:42.743Z,48.44
2018-11-25T05:50:13.466Z,48.73
2018-11-25T05:52:41.865Z,48.30
2018-11-25T05:55:11.383Z,48.87
2018-11-25T05:57:39.742Z,48.88
2018-11-25T06:00:29.109Z,48.82
2018-11-25T06:02:57.527Z,48.71
2018-11-25T06:05:25.982Z,48.82
2018-11-25T06:07:54.490Z,48.75
2018-11-25T06:10:23.045Z,48.41
2018-11-25T06:12:51.630Z,48.49
2018-11-25T06:15:39.563Z,48.21
2018-11-25T06:18:07.932Z,48.49
2018-11-25T06:20:36.337Z,48.47
2018-11-25T06:23:05.417Z,48.09
2018-11-25T06:25:33.700Z,47.97
2018-11-25T06:28:02.239Z,48.18
2018-11-25T06:30:30.778Z,47.25
2018-11-25T06:32:59.767Z,47.33
2018-11-25T06:35:28.661Z,47.43
2018-11-25T06:37:57.045Z,47.30
2018-11-25T06:40:27.539Z,47.65
2018-11-25T06:42:56.454Z,47.04
2018-11-25T06:45:26.153Z,47.26
2018-11-25T06:47:55.033Z,47.02
2018-11-25T06:50:24.356Z,46.76
2018-11-25T06:52:52.893Z,46.73
2018-11-25T06:55:21.829Z,46.79
2018-11-25T06:57:50.181Z,46.97
2018-11-25T07:00:19.991Z,46.64
2018-11-25T07:02:48.327Z,46.40
2018-11-25T07:05:16.735Z,46.75
2018-11-25T07:07:45.180Z,47.08
2018-11-25T07:10:15.238Z,46.88
2018-11-25T07:12:43.656Z,47.04
2018-11-25T07:15:12.856Z,46.55
2018-11-25T07:17:41.741Z,46.40
2018-11-25T07:20:11.512Z,46.61
2018-11-25T07:22:40.233Z,46.63
2018-11-25T07:25:10.706Z,46.49
2018-11-25T07:27:39.584Z,46.57
2018-11-25T07:30:11.188Z,46.30
2018-11-25T07:32:39.540Z,46.20
2018-11-25T07:35:08.799Z,46.34
2018-11-25T07:37:37.361Z,46.63
2018-11-25T07:40:08.067Z,46.57
2018-11-25T07:42:36.310Z,46.47
2018-11-25T07:45:04.582Z,46.30
2018-11-25T07:47:32.779Z,46.29
2018-11-25T07:50:01.482Z,46.53
2018-11-25T07:52:29.801Z,46.46
2018-11-25T07:54:58.037Z,46.43
2018-11-25T07:57:26.316Z,46.45
2018-11-25T07:59:55.459Z,46.41
2018-11-25T08:02:23.962Z,46.34
2018-11-25T08:07:29.564Z,46.11
2018-11-25T08:09:58.301Z,46.42
2018-11-25T08:12:27.060Z,46.42
2018-11-25T08:14:57.800Z,46.30
2018-11-25T08:18:50.614Z,46.13
2018-11-25T08:21:19.356Z,46.09
2018-11-25T08:23:48.257Z,46.04
2018-11-25T08:26:17.163Z,46.17
2018-11-25T08:28:46.197Z,46.32
2018-11-25T08:31:15.027Z,46.18
2018-11-25T08:35:02.775Z,46.29
2018-11-25T08:37:31.561Z,47.09
2018-11-25T08:40:00.092Z,46.60
2018-11-25T08:42:28.581Z,46.82
2018-11-25T08:44:57.130Z,46.58
2018-11-25T08:47:26.187Z,46.54
2018-11-25T08:49:58.774Z,46.21
2018-11-25T08:52:27.461Z,46.52
2018-11-25T08:54:56.452Z,46.51
2018-11-25T08:57:26.362Z,46.45
2018-11-25T08:59:56.085Z,46.53
2018-11-25T09:02:24.769Z,46.63
2018-11-25T09:04:53.178Z,46.64
2018-11-25T09:07:21.565Z,46.58
2018-11-25T09:09:50.144Z,46.36
2018-11-25T09:12:18.406Z,46.64
2018-11-25T09:14:46.793Z,46.52
2018-11-25T09:17:15.241Z,46.27
2018-11-25T09:19:43.556Z,46.56
2018-11-25T09:22:11.941Z,46.35
2018-11-25T09:24:40.625Z,46.54
2018-11-25T09:28:52.371Z,46.67
2018-11-25T09:31:20.815Z,46.29
2018-11-25T09:33:49.741Z,46.34
2018-11-25T09:36:17.952Z,46.49
2018-11-25T09:38:46.205Z,46.11
2018-11-25T09:41:14.472Z,46.19
2018-11-25T09:43:42.757Z,46.74
2018-11-25T09:46:10.952Z,46.50
2018-11-25T09:48:39.122Z,46.55
2018-11-25T09:52:07.960Z,46.79
2018-11-25T09:54:36.515Z,46.60
2018-11-25T09:57:05.037Z,46.02
2018-11-25T09:59:52.310Z,46.51
2018-11-25T10:02:21.107Z,46.44
2018-11-25T10:04:49.732Z,46.34
2018-11-25T10:07:18.945Z,46.32
2018-11-25T10:09:47.809Z,46.31
2018-11-25T10:13:22.783Z,46.45
2018-11-25T10:15:51.242Z,46.69
2018-11-25T10:18:20.552Z,46.03
2018-11-25T10:20:48.923Z,46.36
2018-11-25T10:25:59.018Z,46.18
2018-11-25T10:28:27.798Z,46.19
2018-11-25T10:30:56.492Z,46.09
2018-11-25T10:33:24.695Z,46.33
2018-11-25T10:35:53.105Z,46.00
2018-11-25T10:38:22.171Z,46.34
2018-11-25T10:40:50.556Z,46.38
2018-11-25T10:43:19.232Z,46.59
2018-11-25T10:45:47.639Z,46.23
2018-11-25T10:48:16.179Z,45.77
2018-11-25T10:50:50.956Z,46.27
2018-11-25T10:53:13.290Z,45.91
2018-11-25T10:55:41.802Z,46.05
2018-11-25T10:58:13.372Z,45.98
2018-11-25T11:00:47.844Z,46.16
2018-11-25T11:08:07.217Z,46.01
2018-11-25T11:10:36.105Z,45.98
2018-11-25T11:13:07.979Z,45.92
2018-11-25T11:15:36.437Z,46.37
2018-11-25T11:18:05.194Z,45.87
2018-11-25T11:20:33.775Z,46.22
2018-11-25T11:24:35.185Z,45.91
2018-11-25T11:27:19.275Z,45.65
2018-11-25T11:29:47.537Z,45.72
2018-11-25T11:32:15.814Z,45.36
2018-11-25T11:34:44.767Z,45.63
2018-11-25T11:37:12.947Z,45.74
2018-11-25T11:39:41.386Z,45.56
2018-11-25T11:42:09.985Z,45.39
2018-11-25T11:44:38.689Z,46.01
2018-11-25T11:47:07.012Z,45.54
2018-11-25T11:49:37.327Z,45.89
2018-11-25T11:52:05.913Z,45.92
2018-11-25T11:54:38.264Z,45.67
2018-11-25T11:57:07.987Z,45.79
2018-11-25T11:59:39.453Z,45.94
2018-11-25T12:02:07.770Z,45.85
2018-11-25T12:04:36.267Z,46.11
2018-11-25T12:07:06.453Z,46.40
2018-11-25T12:09:36.225Z,45.77
2018-11-25T12:12:07.906Z,45.73
2018-11-25T12:14:38.313Z,46.16
2018-11-25T12:17:07.417Z,45.66
2018-11-25T12:19:36.483Z,45.84
2018-11-25T12:22:07.165Z,45.87
2018-11-25T12:24:42.454Z,46.08
2018-11-25T12:27:11.426Z,46.06
2018-11-25T12:29:39.902Z,45.95
2018-11-25T12:32:09.374Z,45.83
2018-11-25T12:34:38.682Z,46.07
2018-11-25T12:37:23.699Z,45.90
2018-11-25T12:39:52.094Z,45.64
2018-11-25T12:42:20.385Z,45.87
2018-11-25T12:44:49.198Z,45.81
2018-11-25T12:47:17.730Z,45.86
2018-11-25T12:49:46.767Z,45.95
2018-11-25T12:52:15.701Z,45.58
2018-11-25T12:54:44.425Z,45.80
2018-11-25T12:57:13.346Z,45.62
2018-11-25T12:59:44.097Z,45.64
2018-11-25T13:02:13.049Z,45.58
2018-11-25T13:04:52.511Z,45.60
2018-11-25T13:07:23.192Z,45.91
2018-11-25T13:09:51.801Z,46.06
2018-11-25T13:12:23.302Z,45.57
2018-11-25T13:14:53.988Z,45.59
2018-11-25T13:17:23.211Z,45.86
2018-11-25T13:19:52.146Z,45.79
2018-11-25T13:22:20.487Z,45.47
2018-11-25T13:24:50.152Z,45.41
2018-11-25T13:27:19.080Z,45.61
2018-11-25T13:29:47.525Z,45.71
2018-11-25T13:32:15.916Z,45.86
2018-11-25T13:34:44.382Z,45.66
2018-11-25T13:37:12.858Z,45.68
2018-11-25T13:39:41.295Z,45.46
2018-11-25T13:42:16.028Z,45.67
2018-11-25T13:44:43.709Z,46.10
2018-11-25T13:47:13.143Z,45.32
2018-11-25T13:49:41.589Z,45.79
2018-11-25T13:52:10.198Z,45.48
2018-11-25T13:54:38.906Z,45.62
2018-11-25T13:57:08.090Z,46.05
2018-11-25T13:59:36.480Z,45.46
2018-11-25T14:02:04.967Z,45.62
2018-11-25T14:04:33.276Z,45.75
2018-11-25T14:07:03.187Z,45.46
2018-11-25T14:09:59.430Z,45.88
2018-11-25T14:12:27.717Z,45.53
2018-11-25T14:14:56.293Z,45.83
2018-11-25T14:18:25.708Z,45.56
2018-11-25T14:20:55.376Z,46.09
2018-11-25T14:23:25.979Z,45.83
2018-11-25T14:25:57.695Z,46.02
2018-11-25T14:28:27.097Z,46.04
2018-11-25T14:30:55.944Z,45.89
2018-11-25T14:33:24.552Z,46.04
2018-11-25T14:35:53.791Z,45.96
2018-11-25T14:38:22.361Z,45.95
2018-11-25T14:40:51.581Z,46.13
2018-11-25T14:43:20.143Z,45.94
2018-11-25T14:45:59.509Z,46.00
2018-11-25T14:50:31.227Z,46.26
2018-11-25T14:53:00.317Z,46.05
2018-11-25T14:55:28.801Z,46.02
2018-11-25T14:57:57.310Z,45.99
2018-11-25T15:00:25.794Z,45.61
2018-11-25T15:02:56.093Z,46.07
2018-11-25T15:05:26.417Z,45.92
2018-11-25T15:07:56.381Z,46.20
2018-11-25T15:10:25.864Z,45.70
2018-11-25T15:12:55.340Z,45.79
2018-11-25T15:15:23.839Z,45.81
2018-11-25T15:17:52.438Z,45.83
2018-11-25T15:20:21.055Z,45.60
2018-11-25T15:22:52.040Z,45.91
2018-11-25T15:25:23.200Z,45.52
2018-11-25T15:27:51.693Z,46.29
2018-11-25T15:30:20.188Z,45.76
2018-11-25T15:32:49.016Z,45.69
2018-11-25T15:35:18.340Z,46.16
2018-11-25T15:37:46.657Z,45.94
2018-11-25T15:40:19.060Z,46.08
2018-11-25T15:42:47.443Z,45.96
2018-11-25T15:45:15.701Z,46.16
2018-11-25T15:47:45.205Z,46.00
2018-11-25T15:50:14.291Z,46.26
2018-11-25T15:52:42.547Z,46.20
2018-11-25T15:55:12.519Z,46.09
2018-11-25T15:57:41.187Z,46.38
2018-11-25T16:00:16.284Z,46.33
2018-11-25T16:02:44.476Z,46.13
2018-11-25T16:05:13.453Z,46.35
2018-11-25T16:07:41.799Z,46.38
2018-11-25T16:10:11.036Z,46.39
2018-11-25T16:12:39.983Z,46.08
2018-11-25T16:15:09.830Z,46.11
2018-11-25T16:19:49.008Z,46.21
2018-11-25T16:22:17.490Z,46.32
2018-11-25T16:24:45.718Z,46.41
2018-11-25T16:27:14.200Z,46.31
2018-11-25T16:29:42.411Z,46.12
2018-11-25T16:32:11.024Z,46.36
2018-11-25T16:34:39.239Z,46.24
2018-11-25T16:37:07.507Z,46.26
2018-11-25T16:39:35.749Z,46.35
2018-11-25T16:42:04.746Z,46.33
2018-11-25T16:45:10.284Z,46.35
2018-11-25T16:47:38.693Z,46.29
2018-11-25T16:50:09.051Z,46.30
2018-11-25T16:52:37.622Z,46.39
2018-11-25T16:55:07.323Z,46.38
2018-11-25T16:59:11.502Z,46.09
2018-11-25T17:01:39.748Z,46.43
2018-11-25T17:04:07.969Z,46.48
2018-11-25T17:06:37.744Z,45.97
2018-11-25T17:09:08.871Z,46.23
2018-11-25T17:11:38.279Z,46.18
2018-11-25T17:14:06.791Z,46.57
2018-11-25T17:16:35.613Z,46.31
2018-11-25T17:19:03.887Z,46.69
2018-11-25T17:21:32.121Z,46.53
2018-11-25T17:24:01.000Z,46.30
2018-11-25T17:26:31.696Z,46.02
2018-11-25T17:29:00.695Z,46.26
2018-11-25T17:31:29.083Z,45.99
2018-11-25T17:33:57.268Z,46.09
2018-11-25T17:36:25.612Z,46.25
2018-11-25T17:38:54.644Z,46.40
2018-11-25T17:41:24.140Z,46.39
2018-11-25T17:43:52.476Z,45.96
2018-11-25T17:46:20.861Z,46.17
2018-11-25T17:48:49.415Z,45.97
2018-11-25T17:51:18.013Z,46.27
2018-11-25T17:54:42.427Z,46.47
2018-11-25T17:57:11.353Z,46.13
2018-11-25T17:59:39.720Z,45.94
2018-11-25T18:02:08.792Z,46.47
2018-11-25T18:04:37.733Z,46.06
2018-11-25T18:07:07.038Z,46.21
2018-11-25T18:09:35.789Z,46.25
2018-11-25T18:12:04.171Z,46.01
2018-11-25T18:16:53.488Z,46.05
2018-11-25T18:20:35.578Z,46.36
2018-11-25T18:23:04.185Z,46.37
2018-11-25T18:25:33.292Z,45.88
2018-11-25T18:28:01.661Z,46.26
2018-11-25T18:30:29.866Z,46.07
2018-11-25T18:32:58.748Z,46.05
2018-11-25T18:35:27.281Z,46.16
2018-11-25T18:37:55.544Z,46.09
2018-11-25T18:40:23.952Z,46.23
2018-11-25T18:42:52.784Z,45.68
2018-11-25T18:45:21.049Z,46.26
2018-11-25T18:47:55.078Z,46.11
2018-11-25T18:50:24.807Z,46.05
2018-11-25T18:52:54.909Z,45.87
2018-11-25T18:55:22.537Z,46.26
2018-11-25T18:59:47.188Z,46.05
2018-11-25T19:02:17.264Z,45.94
2018-11-25T19:04:45.553Z,45.96
2018-11-25T19:07:13.786Z,46.21
2018-11-25T19:09:42.401Z,46.52
2018-11-25T19:12:10.614Z,46.01
2018-11-25T19:15:01.679Z,46.17
2018-11-25T19:17:30.658Z,45.97
2018-11-25T19:19:58.906Z,46.45
2018-11-25T19:22:27.333Z,46.21
2018-11-25T19:24:55.815Z,46.10
2018-11-25T19:27:24.443Z,46.16
2018-11-25T19:29:52.685Z,45.91
2018-11-25T19:32:20.977Z,46.21
2018-11-25T19:34:49.819Z,46.04
2018-11-25T19:37:19.110Z,45.99
2018-11-25T19:41:14.531Z,46.15
2018-11-25T19:43:42.759Z,45.75
2018-11-25T19:46:11.388Z,46.12
2018-11-25T19:48:39.864Z,46.07
2018-11-25T19:51:16.766Z,46.21
2018-11-25T19:53:37.124Z,46.15
2018-11-25T19:56:05.462Z,46.35
2018-11-25T19:58:33.732Z,46.30
2018-11-25T20:01:02.064Z,46.23
2018-11-25T20:03:30.545Z,46.43
2018-11-25T20:05:59.428Z,46.13
2018-11-25T20:10:01.768Z,46.27
2018-11-25T20:12:35.523Z,46.07
2018-11-25T20:15:04.063Z,46.35
2018-11-25T20:17:33.079Z,46.25
2018-11-25T20:20:01.691Z,46.10
2018-11-25T20:22:30.544Z,46.07
2018-11-25T20:24:59.024Z,46.24
2018-11-25T20:27:32.744Z,46.16
2018-11-25T20:30:01.155Z,46.02
2018-11-25T20:32:35.224Z,46.24
2018-11-25T20:35:03.816Z,46.12
2018-11-25T20:37:33.084Z,46.13
2018-11-25T20:42:41.741Z,46.09
2018-11-25T20:45:16.181Z,45.92
2018-11-25T20:47:44.676Z,46.18
2018-11-25T20:50:13.233Z,45.85
2018-11-25T20:52:46.689Z,46.18
2018-11-25T20:55:15.143Z,46.13
2018-11-25T20:57:44.301Z,46.58
2018-11-25T21:00:15.151Z,45.85
2018-11-25T21:02:43.398Z,46.04
2018-11-25T21:05:12.132Z,45.82
2018-11-25T21:07:40.364Z,46.26
2018-11-25T21:10:12.351Z,46.20
2018-11-25T21:12:40.760Z,45.94
2018-11-25T21:15:09.557Z,45.78
2018-11-25T21:17:37.732Z,46.02
2018-11-25T21:20:11.657Z,46.24
2018-11-25T21:22:40.182Z,45.92
2018-11-25T21:25:09.293Z,46.11
2018-11-25T21:27:37.524Z,46.44
2018-11-25T21:30:08.286Z,46.22
2018-11-25T21:32:36.978Z,46.17
2018-11-25T21:36:35.209Z,46.43
2018-11-25T21:39:05.060Z,46.40
2018-11-25T21:41:34.018Z,46.42
2018-11-25T21:44:02.525Z,46.48
2018-11-25T21:46:31.344Z,46.43
2018-11-25T21:48:59.921Z,46.47
2018-11-25T21:51:28.900Z,46.70
2018-11-25T21:54:43.700Z,46.66
2018-11-25T21:57:13.139Z,46.48
2018-11-25T21:59:41.602Z,46.63
2018-11-25T22:02:10.198Z,46.69
2018-11-25T22:04:38.634Z,46.65
2018-11-25T22:07:07.643Z,47.05
2018-11-25T22:09:36.156Z,46.73
2018-11-25T22:12:05.168Z,46.90
2018-11-25T22:14:33.596Z,46.65
2018-11-25T22:17:02.003Z,46.90
2018-11-25T22:20:07.806Z,46.75
2018-11-25T22:22:36.375Z,46.82
2018-11-25T22:25:05.844Z,47.16
2018-11-25T22:27:34.411Z,46.97
2018-11-25T22:30:03.025Z,46.85
2018-11-25T22:32:31.802Z,47.03
2018-11-25T22:35:00.448Z,46.97
2018-11-25T22:37:29.763Z,47.32
2018-11-25T22:39:58.321Z,46.96
2018-11-25T22:42:26.740Z,47.47
2018-11-25T22:44:55.456Z,47.31
2018-11-25T22:47:23.902Z,47.14
2018-11-25T22:49:52.458Z,47.18
2018-11-25T22:52:20.937Z,47.35
2018-11-25T22:54:49.599Z,47.33
2018-11-25T22:57:18.537Z,47.58
2018-11-25T22:59:47.000Z,47.29
2018-11-25T23:02:15.382Z,47.50
2018-11-25T23:04:49.899Z,47.53
2018-11-25T23:07:18.404Z,47.34
2018-11-25T23:09:46.895Z,47.68
2018-11-25T23:12:15.159Z,47.45
2018-11-25T23:14:44.120Z,47.91
2018-11-25T23:17:12.485Z,47.62
2018-11-25T23:21:14.479Z,47.82
2018-11-25T23:23:43.109Z,47.85
2018-11-25T23:26:11.308Z,47.90
2018-11-25T23:28:39.721Z,47.86
2018-11-25T23:31:08.197Z,47.86
2018-11-25T23:33:36.600Z,47.86
2018-11-25T23:36:05.249Z,48.13
2018-11-25T23:38:34.302Z,48.12
2018-11-25T23:41:02.820Z,47.97
2018-11-25T23:43:31.329Z,48.21
2018-11-25T23:46:00.114Z,48.08
2018-11-25T23:48:28.564Z,48.25
2018-11-25T23:54:21.456Z,48.05
